createdAt,value
2023-05-15T00:01:04.978Z,64.24
2023-05-15T00:03:31.561Z,64.79
2023-05-15T00:05:58.020Z,64.89
2023-05-15T00:08:24.339Z,64.76
2023-05-15T00:11:00.890Z,65.23
2023-05-15T00:13:28.097Z,64.92
2023-05-15T00:15:54.444Z,64.67
2023-05-15T00:18:20.824Z,65.81
2023-05-15T00:20:47.147Z,65.96
2023-05-15T00:23:13.477Z,65.86
2023-05-15T00:25:39.801Z,64.12
2023-05-15T00:28:06.114Z,65.15
2023-05-15T00:30:32.421Z,65.77
2023-05-15T00:32:58.787Z,65.19
2023-05-15T00:35:25.321Z,66.32
2023-05-15T00:37:51.982Z,65.93
2023-05-15T00:40:18.286Z,65.84
2023-05-15T00:42:44.596Z,66.42
2023-05-15T00:45:10.916Z,65.26
2023-05-15T00:47:37.300Z,65.09
2023-05-15T00:50:03.636Z,65.82
2023-05-15T00:52:30.035Z,65.68
2023-05-15T00:54:56.397Z,66.28
2023-05-15T00:57:22.708Z,65.98
2023-05-15T00:59:48.998Z,66.67
2023-05-15T01:02:15.358Z,66.37
2023-05-15T01:04:41.691Z,66.29
2023-05-15T01:07:08.017Z,66.61
2023-05-15T01:09:34.346Z,66.13
2023-05-15T01:12:00.676Z,66.51
2023-05-15T01:14:27.025Z,66.27
2023-05-15T01:16:53.344Z,66.41
2023-05-15T01:19:19.786Z,66.52
2023-05-15T01:21:46.177Z,66.21
2023-05-15T01:24:12.518Z,65.74
2023-05-15T01:26:38.842Z,65.93
2023-05-15T01:29:05.168Z,66.03
2023-05-15T01:31:31.530Z,66.52
2023-05-15T01:33:57.865Z,65.92
2023-05-15T01:36:24.183Z,66.87
2023-05-15T01:38:50.512Z,65.98
2023-05-15T01:41:16.842Z,66.08
2023-05-15T01:43:43.172Z,66.49
2023-05-15T01:46:09.577Z,65.86
2023-05-15T01:48:35.939Z,65.89
2023-05-15T01:51:02.269Z,65.76
2023-05-15T01:53:28.577Z,65.68
2023-05-15T01:55:54.900Z,65.66
2023-05-15T01:58:21.219Z,65.74
2023-05-15T02:00:47.530Z,65.89
2023-05-15T02:03:13.909Z,65.96
2023-05-15T02:05:40.287Z,66.06
2023-05-15T02:08:06.614Z,65.85
2023-05-15T02:10:32.947Z,66.27
2023-05-15T02:12:59.258Z,66.15
2023-05-15T02:15:25.809Z,66.43
2023-05-15T02:17:52.340Z,66.05
2023-05-15T02:20:18.707Z,65.99
2023-05-15T02:22:45.072Z,66.07
2023-05-15T02:25:11.397Z,65.92
2023-05-15T02:27:37.716Z,65.76
2023-05-15T02:30:04.043Z,65.87
2023-05-15T02:32:30.456Z,65.98
2023-05-15T02:34:56.788Z,65.42
2023-05-15T02:37:23.118Z,66.05
2023-05-15T02:39:49.460Z,65.61
2023-05-15T02:42:15.782Z,66.29
2023-05-15T02:44:42.103Z,65.64
2023-05-15T02:47:08.442Z,65.20
2023-05-15T02:49:34.741Z,65.82
2023-05-15T02:52:01.064Z,64.94
2023-05-15T02:54:27.378Z,65.66
2023-05-15T02:56:53.713Z,65.70
2023-05-15T02:59:20.079Z,64.97
2023-05-15T03:01:46.430Z,65.53
2023-05-15T03:04:12.795Z,65.71
2023-05-15T03:06:39.137Z,65.80
2023-05-15T03:09:05.465Z,66.04
2023-05-15T03:11:31.766Z,66.03
2023-05-15T03:13:58.077Z,66.50
2023-05-15T03:16:24.418Z,65.39
2023-05-15T03:18:50.809Z,65.58
2023-05-15T03:21:17.146Z,66.38
2023-05-15T03:23:43.462Z,65.83
2023-05-15T03:26:09.774Z,66.16
2023-05-15T03:28:36.081Z,66.41
2023-05-15T03:31:02.415Z,65.99
2023-05-15T03:33:28.747Z,66.26
2023-05-15T03:35:55.065Z,66.18
2023-05-15T03:38:21.391Z,66.19
2023-05-15T03:40:50.257Z,66.32
2023-05-15T03:43:17.361Z,66.46
2023-05-15T03:45:43.681Z,66.44
2023-05-15T03:48:10.013Z,66.36
2023-05-15T03:50:36.337Z,65.73
2023-05-15T03:53:02.643Z,65.64
2023-05-15T03:55:28.971Z,65.56
2023-05-15T03:57:55.296Z,65.60
2023-05-15T04:00:21.621Z,65.68
2023-05-15T04:02:47.998Z,65.22
2023-05-15T04:05:14.397Z,64.89
2023-05-15T04:07:40.731Z,64.93
2023-05-15T04:10:07.062Z,64.63
2023-05-15T04:12:33.399Z,65.32
2023-05-15T04:14:59.712Z,65.29
2023-05-15T04:17:26.097Z,65.15
2023-05-15T04:19:52.411Z,65.03
2023-05-15T04:22:18.739Z,65.01
2023-05-15T04:24:45.073Z,64.85
2023-05-15T04:27:11.571Z,64.26
2023-05-15T04:29:37.909Z,64.60
2023-05-15T04:32:04.389Z,65.07
2023-05-15T04:34:30.787Z,65.00
2023-05-15T04:36:57.106Z,64.76
2023-05-15T04:39:23.406Z,65.30
2023-05-15T04:41:49.733Z,64.94
2023-05-15T04:44:16.076Z,65.31
2023-05-15T04:46:42.407Z,64.63
2023-05-15T04:49:08.740Z,65.21
2023-05-15T04:51:35.069Z,64.80
2023-05-15T04:54:01.397Z,64.87
2023-05-15T04:56:27.721Z,65.23
2023-05-15T04:58:54.037Z,65.70
2023-05-15T05:01:20.374Z,65.82
2023-05-15T05:03:46.793Z,65.47
2023-05-15T05:06:13.158Z,65.18
2023-05-15T05:08:39.475Z,65.64
2023-05-15T05:11:05.801Z,65.57
2023-05-15T05:13:32.124Z,64.94
2023-05-15T05:15:58.482Z,65.16
2023-05-15T05:18:24.803Z,65.34
2023-05-15T05:20:51.124Z,65.46
2023-05-15T05:23:17.451Z,65.24
2023-05-15T05:25:43.771Z,65.41
2023-05-15T05:28:10.099Z,65.37
2023-05-15T05:30:36.417Z,65.47
2023-05-15T05:33:02.745Z,65.31
2023-05-15T05:35:29.088Z,65.00
2023-05-15T05:37:55.388Z,65.35
2023-05-15T05:40:21.699Z,64.89
2023-05-15T05:42:48.016Z,65.31
2023-05-15T05:45:14.355Z,64.93
2023-05-15T05:47:40.733Z,64.01
2023-05-15T05:50:07.056Z,64.26
2023-05-15T05:52:33.386Z,64.60
2023-05-15T05:54:59.700Z,65.43
2023-05-15T05:57:26.025Z,64.78
2023-05-15T05:59:52.329Z,63.90
2023-05-15T06:02:18.721Z,62.94
2023-05-15T06:04:45.095Z,62.48
2023-05-15T06:07:11.409Z,64.84
2023-05-15T06:09:37.723Z,66.26
2023-05-15T06:12:04.034Z,64.80
2023-05-15T06:14:30.366Z,64.34
2023-05-15T06:16:56.699Z,62.98
2023-05-15T06:19:23.046Z,63.42
2023-05-15T06:21:49.415Z,62.46
2023-05-15T06:24:15.725Z,63.25
2023-05-15T06:26:42.043Z,62.81
2023-05-15T06:29:08.385Z,63.35
2023-05-15T06:31:34.760Z,62.98
2023-05-15T06:34:01.111Z,63.49
2023-05-15T06:36:27.429Z,63.38
2023-05-15T06:38:53.744Z,63.46
2023-05-15T06:41:20.073Z,62.58
2023-05-15T06:43:46.389Z,63.06
2023-05-15T06:46:12.962Z,62.75
2023-05-15T06:48:39.353Z,62.73
2023-05-15T06:51:05.677Z,63.04
2023-05-15T06:53:31.998Z,61.89
2023-05-15T06:55:58.311Z,62.30
2023-05-15T06:58:24.636Z,61.10
2023-05-15T11:45:21.513Z,46.41
2023-05-15T11:47:47.873Z,46.00
2023-05-15T11:50:14.212Z,45.25
2023-05-15T11:52:40.536Z,44.58
2023-05-15T11:55:06.850Z,45.29
2023-05-15T11:57:33.180Z,45.09
2023-05-15T11:59:59.506Z,43.97
2023-05-15T12:02:25.866Z,45.64
2023-05-15T12:04:52.384Z,47.38
2023-05-15T12:07:18.749Z,48.33
2023-05-15T12:09:45.095Z,49.72
2023-05-15T12:12:11.401Z,49.82
2023-05-15T12:14:37.709Z,48.74
2023-05-15T12:17:04.041Z,49.92
2023-05-15T12:19:30.365Z,48.96
2023-05-15T12:21:56.692Z,50.15
2023-05-15T12:24:23.037Z,47.15
2023-05-15T12:26:49.346Z,47.33
2023-05-15T12:29:15.669Z,47.83
2023-05-15T12:31:42.046Z,48.01
2023-05-15T12:34:08.425Z,46.29
2023-05-15T12:36:34.742Z,44.41
2023-05-15T12:39:01.085Z,44.98
2023-05-15T12:41:27.439Z,44.65
2023-05-15T12:43:53.790Z,43.89
2023-05-15T12:46:20.205Z,43.64
2023-05-15T12:48:46.554Z,43.42
2023-05-15T12:51:12.865Z,42.89
2023-05-15T12:53:39.211Z,42.41
2023-05-15T12:56:05.598Z,41.18
2023-05-15T12:58:31.915Z,38.59
2023-05-15T13:00:58.267Z,40.45
2023-05-15T13:03:24.662Z,40.74
2023-05-15T13:05:50.990Z,40.37
2023-05-15T13:08:17.303Z,39.05
2023-05-15T13:10:43.653Z,39.51
2023-05-15T13:13:09.996Z,37.98
2023-05-15T13:15:36.386Z,39.84
2023-05-15T13:18:02.781Z,43.10
2023-05-15T13:20:29.189Z,42.89
2023-05-15T13:22:55.495Z,43.52
2023-05-15T13:25:21.840Z,43.24
2023-05-15T13:27:48.187Z,42.15
2023-05-15T13:30:14.623Z,43.06
2023-05-15T13:32:40.992Z,43.64
2023-05-15T13:35:07.322Z,43.37
2023-05-15T13:37:33.647Z,44.22
2023-05-15T13:40:00.030Z,43.26
2023-05-15T13:42:26.352Z,43.87
2023-05-15T13:44:52.675Z,44.45
2023-05-15T13:47:19.090Z,44.45
2023-05-15T13:49:45.426Z,44.10
2023-05-15T13:52:11.756Z,42.96
2023-05-15T13:54:38.080Z,43.38
2023-05-15T13:57:04.408Z,43.53
2023-05-15T13:59:30.740Z,43.97
2023-05-15T14:01:57.092Z,43.90
2023-05-15T14:04:23.543Z,44.43
2023-05-15T14:06:49.910Z,44.36
2023-05-15T14:09:16.234Z,45.34
2023-05-15T14:11:42.807Z,44.09
2023-05-15T14:14:09.141Z,45.04
2023-05-15T14:16:35.514Z,42.74
2023-05-15T14:19:01.891Z,43.78
2023-05-15T14:21:28.229Z,44.12
2023-05-15T14:23:54.529Z,43.61
2023-05-15T14:26:20.849Z,41.77
2023-05-15T14:28:47.193Z,40.60
2023-05-15T14:31:13.567Z,40.86
2023-05-15T14:36:06.148Z,39.42
2023-05-15T14:38:32.488Z,39.52
2023-05-15T14:40:58.826Z,40.96
2023-05-15T14:43:25.146Z,41.59
2023-05-15T14:45:51.547Z,43.00
2023-05-15T14:48:17.892Z,44.29
2023-05-15T14:50:44.204Z,44.83
2023-05-15T14:53:10.522Z,45.76
2023-05-15T14:55:36.860Z,47.41
2023-05-15T14:58:03.196Z,47.59
2023-05-15T15:00:29.554Z,47.55
2023-05-15T15:02:55.985Z,47.35
2023-05-15T15:05:22.391Z,46.84
2023-05-15T15:07:48.690Z,47.74
2023-05-15T15:10:14.997Z,46.48
2023-05-15T15:12:41.306Z,47.38
2023-05-15T15:15:07.612Z,47.77
2023-05-15T15:17:33.956Z,48.18
2023-05-15T15:20:00.350Z,48.12
2023-05-15T15:22:26.655Z,48.22
2023-05-15T15:24:52.997Z,48.62
2023-05-15T15:27:19.334Z,47.62
2023-05-15T15:29:45.662Z,47.37
2023-05-15T15:32:12.050Z,46.53
2023-05-15T15:34:38.436Z,46.01
2023-05-15T15:37:04.757Z,45.74
2023-05-15T15:39:31.061Z,45.33
2023-05-15T15:41:57.369Z,45.81
2023-05-15T15:44:23.693Z,45.57
2023-05-15T15:46:50.010Z,46.11
2023-05-15T15:49:16.368Z,46.36
2023-05-15T15:51:42.735Z,46.64
2023-05-15T15:54:09.106Z,46.19
2023-05-15T15:56:35.438Z,47.33
2023-05-15T15:59:01.748Z,47.22
2023-05-15T16:01:28.108Z,46.13
2023-05-15T16:03:54.530Z,45.95
2023-05-15T16:06:20.867Z,47.32
2023-05-15T16:08:47.187Z,46.36
2023-05-15T16:11:13.536Z,46.46
2023-05-15T16:13:41.074Z,47.46
2023-05-15T16:16:07.635Z,48.19
2023-05-15T16:18:33.993Z,48.16
2023-05-15T16:21:00.329Z,48.55
2023-05-15T16:23:26.637Z,48.34
2023-05-15T16:25:52.965Z,48.92
2023-05-15T16:28:19.285Z,50.41
2023-05-15T16:30:49.452Z,51.19
2023-05-15T16:33:16.214Z,52.14
2023-05-15T16:35:42.579Z,52.78
2023-05-15T16:38:08.922Z,53.28
2023-05-15T16:40:35.261Z,53.65
2023-05-15T16:43:01.580Z,54.34
2023-05-15T16:45:27.905Z,54.53
2023-05-15T16:47:54.290Z,55.66
2023-05-15T16:50:20.733Z,55.96
2023-05-15T16:52:47.109Z,56.44
2023-05-15T16:55:13.496Z,56.13
2023-05-15T16:57:39.805Z,56.42
2023-05-15T17:00:06.129Z,57.26
2023-05-15T17:02:32.525Z,57.10
2023-05-15T17:04:58.905Z,56.84
2023-05-15T17:07:25.228Z,57.15
2023-05-15T17:09:51.543Z,58.05
2023-05-15T17:12:17.856Z,57.79
2023-05-15T17:14:44.175Z,58.38
2023-05-15T17:17:10.487Z,57.93
2023-05-15T17:19:36.811Z,58.39
2023-05-15T17:22:03.111Z,59.00
2023-05-15T17:24:38.823Z,58.88
2023-05-15T17:27:15.699Z,59.51
2023-05-15T17:29:42.061Z,59.06
2023-05-15T17:32:08.482Z,58.63
2023-05-15T17:34:34.901Z,59.30
2023-05-15T17:37:01.248Z,58.16
2023-05-15T17:39:27.555Z,58.44
2023-05-15T17:41:53.878Z,59.24
2023-05-15T17:44:20.209Z,58.56
2023-05-15T17:46:46.520Z,58.73
2023-05-15T17:49:12.832Z,58.89
2023-05-15T17:51:39.138Z,59.33
2023-05-15T17:54:05.491Z,59.32
2023-05-15T17:56:31.803Z,59.29
2023-05-15T17:58:58.114Z,58.44
2023-05-15T18:01:24.492Z,58.36
2023-05-15T18:03:50.834Z,58.43
2023-05-15T18:06:17.152Z,58.04
2023-05-15T18:08:43.471Z,58.25
2023-05-15T18:11:21.525Z,58.65
2023-05-15T18:13:48.951Z,58.87
2023-05-15T18:16:15.320Z,59.19
2023-05-15T18:18:41.670Z,59.94
2023-05-15T18:21:08.021Z,59.63
2023-05-15T18:23:34.360Z,59.81
2023-05-15T18:26:00.710Z,60.04
2023-05-15T18:28:27.032Z,60.12
2023-05-15T18:30:53.338Z,58.95
2023-05-15T18:33:19.671Z,58.33
2023-05-15T18:35:45.973Z,58.16
2023-05-15T18:38:12.308Z,57.57
2023-05-15T18:40:38.650Z,58.25
2023-05-15T18:43:04.970Z,58.56
2023-05-15T18:45:31.284Z,59.28
2023-05-15T18:47:57.621Z,58.40
2023-05-15T18:50:23.988Z,58.47
2023-05-15T18:52:50.320Z,57.89
2023-05-15T18:55:16.636Z,58.43
2023-05-15T18:57:42.958Z,58.52
2023-05-15T19:00:09.278Z,58.04
2023-05-15T19:02:35.619Z,58.32
2023-05-15T19:05:01.967Z,58.74
2023-05-15T19:07:28.290Z,58.58
2023-05-15T19:09:54.617Z,58.56
2023-05-15T19:12:20.934Z,58.29
2023-05-15T19:14:47.268Z,58.71
2023-05-15T19:17:13.630Z,59.39
2023-05-15T19:19:39.941Z,59.27
2023-05-15T19:22:06.284Z,58.85
2023-05-15T19:24:33.631Z,57.93
2023-05-15T19:27:00.090Z,57.82
2023-05-15T19:29:26.459Z,56.73
2023-05-15T19:31:52.809Z,56.73
2023-05-15T19:34:19.138Z,56.08
2023-05-15T19:36:45.443Z,55.46
2023-05-15T19:39:11.772Z,55.79
2023-05-15T19:41:38.114Z,55.95
2023-05-15T19:44:04.546Z,55.85
2023-05-15T19:46:30.988Z,55.75
2023-05-15T19:48:57.346Z,55.79
2023-05-15T19:51:23.650Z,55.77
2023-05-15T19:53:49.983Z,55.58
2023-05-15T19:56:16.296Z,55.55
2023-05-15T19:58:42.621Z,55.35
2023-05-15T20:01:09.008Z,55.89
2023-05-15T20:03:35.718Z,55.87
2023-05-15T20:06:02.127Z,55.60
2023-05-15T20:08:28.469Z,55.94
2023-05-15T20:10:54.776Z,56.25
2023-05-15T20:13:21.119Z,56.10
2023-05-15T20:15:47.462Z,55.84
2023-05-15T20:18:13.908Z,56.10
2023-05-15T20:20:40.249Z,56.16
2023-05-15T20:23:06.567Z,56.09
2023-05-15T20:25:32.883Z,56.72
2023-05-15T20:27:59.221Z,57.23
2023-05-15T20:30:25.621Z,57.36
2023-05-15T20:32:52.095Z,57.52
2023-05-15T20:35:18.505Z,57.62
2023-05-15T20:37:44.835Z,57.85
2023-05-15T20:40:11.157Z,57.93
2023-05-15T20:42:37.481Z,58.23
2023-05-15T20:45:03.812Z,58.12
2023-05-15T20:47:30.196Z,58.24
2023-05-15T20:49:56.505Z,58.36
2023-05-15T20:52:22.855Z,57.94
2023-05-15T20:54:49.167Z,58.63
2023-05-15T20:57:15.474Z,58.50
2023-05-15T20:59:41.811Z,58.64
2023-05-15T21:02:08.138Z,58.99
2023-05-15T21:04:34.449Z,58.58
2023-05-15T21:07:00.773Z,59.45
2023-05-15T21:09:27.117Z,59.62
2023-05-15T21:11:53.438Z,59.42
2023-05-15T21:14:19.763Z,59.79
2023-05-15T21:16:46.103Z,59.70
2023-05-15T21:19:12.456Z,60.17
2023-05-15T21:21:38.843Z,60.28
2023-05-15T21:24:05.153Z,60.56
2023-05-15T21:26:31.485Z,60.61
2023-05-15T21:28:57.792Z,61.38
2023-05-15T21:31:24.132Z,61.80
2023-05-15T21:33:50.477Z,61.33
2023-05-15T21:36:16.804Z,61.43
2023-05-15T21:38:43.129Z,61.60
2023-05-15T21:41:09.441Z,62.24
2023-05-15T21:43:35.757Z,61.48
2023-05-15T21:46:02.099Z,62.33
2023-05-15T21:48:28.502Z,61.59
2023-05-15T21:50:54.826Z,61.89
2023-05-15T21:53:21.154Z,61.69
2023-05-15T21:55:47.464Z,61.31
2023-05-15T21:58:13.786Z,61.62
2023-05-15T22:00:40.111Z,61.65
2023-05-15T22:03:06.539Z,61.24
2023-05-15T22:05:32.892Z,61.34
2023-05-15T22:07:59.210Z,61.04
2023-05-15T22:10:25.697Z,60.92
2023-05-15T22:12:52.192Z,60.74
2023-05-15T22:15:18.588Z,60.76
2023-05-15T22:17:44.922Z,60.56
2023-05-15T22:20:11.262Z,60.28
2023-05-15T22:22:37.596Z,60.81
2023-05-15T22:25:03.910Z,60.93
2023-05-15T22:27:30.237Z,60.43
2023-05-15T22:29:56.549Z,60.86
2023-05-15T22:32:22.914Z,61.12
2023-05-15T22:34:49.254Z,61.00
2023-05-15T22:37:15.560Z,61.35
2023-05-15T22:39:41.893Z,60.83
2023-05-15T22:42:08.213Z,60.54
2023-05-15T22:44:34.532Z,61.33
2023-05-15T22:47:00.859Z,60.94
2023-05-15T22:49:27.177Z,61.31
2023-05-15T22:51:53.498Z,61.35
2023-05-15T22:54:19.807Z,61.46
2023-05-15T22:56:46.657Z,61.46
2023-05-15T22:59:12.979Z,61.29
2023-05-15T23:01:39.348Z,61.39
2023-05-15T23:04:05.781Z,60.82
2023-05-15T23:06:32.149Z,61.76
2023-05-15T23:08:58.461Z,61.57
2023-05-15T23:11:24.775Z,61.28
2023-05-15T23:13:51.097Z,61.39
2023-05-15T23:16:17.467Z,61.07
2023-05-15T23:18:43.880Z,61.31
2023-05-15T23:21:10.213Z,61.30
2023-05-15T23:23:36.553Z,61.87
2023-05-15T23:26:02.881Z,61.04
2023-05-15T23:28:29.198Z,61.35
2023-05-15T23:30:55.588Z,61.06
2023-05-15T23:33:21.957Z,61.60
2023-05-15T23:35:48.274Z,61.34
2023-05-15T23:38:14.599Z,61.85
2023-05-15T23:40:40.918Z,62.05
2023-05-15T23:43:07.255Z,61.85
2023-05-15T23:45:33.652Z,62.05
2023-05-15T23:48:00.126Z,61.62
2023-05-15T23:50:26.843Z,61.73
2023-05-15T23:52:53.370Z,62.20
2023-05-15T23:55:19.694Z,62.17
2023-05-15T23:57:46.029Z,62.56
